Time;durP1;ratioP1;P1;durP2;ratioP2;P2;SDS_P1;SDS_P2;PMS_P1;PMS_P2;Temp;Humidity;BMP_temperature;BMP_pressure;BME280_temperature;BME280_humidity;BME280_pressure;Samples;Min_cycle;Max_cycle;Signal;HPM_P1;HPM_P2
2023/09/29 00:01:32;;;;;;;9.55;6.20;;;;;;;12.65;100.00;98713.38;6109172;19;20018;-74
2023/09/29 00:03:33;;;;;;;9.88;6.25;;;;;;;12.56;100.00;98713.69;6109462;19;20070;-74
2023/09/29 00:05:33;;;;;;;8.77;6.32;;;;;;;12.49;100.00;98713.63;6110564;19;20353;-74
2023/09/29 00:07:34;;;;;;;8.48;6.65;;;;;;;12.44;100.00;98713.22;6110173;19;20014;-74
2023/09/29 00:09:34;;;;;;;11.90;6.90;;;;;;;12.39;100.00;98711.59;6109348;19;20010;-74
2023/09/29 00:11:35;;;;;;;9.35;6.55;;;;;;;12.29;100.00;98713.09;6106566;19;20013;-74
2023/09/29 00:13:35;;;;;;;7.32;6.40;;;;;;;12.24;100.00;98707.09;6110082;19;20013;-74
2023/09/29 00:15:37;;;;;;;7.38;6.57;;;;;;;12.22;100.00;98715.81;6110122;19;20011;-74
2023/09/29 00:17:38;;;;;;;8.45;6.47;;;;;;;12.22;100.00;98706.69;6108923;19;20060;-74
2023/09/29 00:19:38;;;;;;;8.45;6.85;;;;;;;12.14;100.00;98711.38;6109652;19;20363;-74
2023/09/29 00:21:38;;;;;;;14.45;7.45;;;;;;;12.08;100.00;98716.50;6108821;19;20066;-74
2023/09/29 00:23:39;;;;;;;9.27;7.28;;;;;;;12.07;100.00;98706.56;6109020;19;20025;-74
2023/09/29 00:25:39;;;;;;;8.30;6.60;;;;;;;12.08;100.00;98715.66;6109436;19;20046;-74
2023/09/29 00:27:39;;;;;;;9.20;6.57;;;;;;;12.04;100.00;98714.84;6110080;19;20011;-74
2023/09/29 00:29:40;;;;;;;9.75;6.22;;;;;;;12.03;100.00;98716.03;6108586;19;20011;-74
2023/09/29 00:31:41;;;;;;;7.80;6.72;;;;;;;12.00;100.00;98711.28;6108801;19;20020;-74
2023/09/29 00:33:42;;;;;;;9.88;6.97;;;;;;;12.01;100.00;98721.97;6109997;19;20547;-74
2023/09/29 00:35:42;;;;;;;10.50;7.18;;;;;;;12.02;100.00;98712.47;6108954;19;23344;-74
2023/09/29 00:37:42;;;;;;;7.43;6.40;;;;;;;12.03;100.00;98713.25;6108945;19;20386;-74
2023/09/29 00:39:43;;;;;;;9.13;6.97;;;;;;;12.05;100.00;98703.38;6107713;19;20025;-74
2023/09/29 00:41:44;;;;;;;9.05;7.28;;;;;;;12.12;100.00;98707.41;6109426;19;20056;-74
2023/09/29 00:43:44;;;;;;;8.45;6.88;;;;;;;12.15;100.00;98698.31;6108325;19;20021;-74
2023/09/29 00:45:47;;;;;;;8.98;6.53;;;;;;;12.15;100.00;98698.31;6109752;19;20002;-74
2023/09/29 00:47:50;;;;;;;10.07;6.68;;;;;;;12.17;100.00;98694.00;6109043;19;20538;-74
2023/09/29 00:49:51;;;;;;;7.85;6.40;;;;;;;12.14;100.00;98683.63;6107253;19;20002;-74
2023/09/29 00:51:52;;;;;;;8.82;6.55;;;;;;;12.15;100.00;98693.56;6108222;19;20011;-74
2023/09/29 00:53:52;;;;;;;8.45;6.40;;;;;;;12.16;100.00;98689.59;6109236;19;19998;-74
2023/09/29 00:55:53;;;;;;;10.23;6.63;;;;;;;12.13;100.00;98693.16;6108942;19;20017;-74
2023/09/29 00:57:56;;;;;;;10.27;7.72;;;;;;;12.10;100.00;98680.06;6108903;19;20321;-74
2023/09/29 00:59:57;;;;;;;12.80;6.75;;;;;;;12.06;100.00;98685.56;6104966;19;20010;-74
2023/09/29 01:01:58;;;;;;;7.30;5.63;;;;;;;12.07;100.00;98689.13;6108496;19;20006;-74
2023/09/29 01:03:58;;;;;;;9.00;7.10;;;;;;;12.03;100.00;98677.22;6106823;19;20348;-74
2023/09/29 01:05:59;;;;;;;9.57;6.32;;;;;;;11.99;100.00;98681.91;6108785;19;20021;-74
2023/09/29 01:07:59;;;;;;;7.95;5.97;;;;;;;11.92;100.00;98670.78;6108702;19;20010;-74
2023/09/29 01:10:01;;;;;;;9.18;6.80;;;;;;;11.95;100.00;98665.25;6108039;19;20014;-74
2023/09/29 01:12:01;;;;;;;10.48;7.05;;;;;;;11.97;100.00;98678.75;6105126;19;20019;-73
2023/09/29 01:14:02;;;;;;;8.10;6.60;;;;;;;11.95;100.00;98678.34;6108313;19;19995;-74
2023/09/29 01:16:02;;;;;;;9.57;6.40;;;;;;;11.95;100.00;98675.56;6107881;19;19999;-73
2023/09/29 01:18:03;;;;;;;9.27;6.45;;;;;;;11.98;100.00;98660.91;6108398;19;20036;-74
2023/09/29 01:20:06;;;;;;;8.70;6.47;;;;;;;11.97;100.00;98665.66;6106016;19;19999;-74
2023/09/29 01:22:06;;;;;;;10.38;7.00;;;;;;;12.02;100.00;98653.44;6105865;19;20006;-74
2023/09/29 01:24:07;;;;;;;10.48;6.95;;;;;;;12.05;100.00;98660.97;6106481;19;20686;-74
2023/09/29 01:26:08;;;;;;;13.80;7.00;;;;;;;12.06;100.00;98665.34;6107106;19;20006;-74
2023/09/29 01:28:10;;;;;;;9.75;7.05;;;;;;;12.03;100.00;98666.91;6107965;19;20412;-74
2023/09/29 01:30:13;;;;;;;9.45;7.20;;;;;;;11.96;100.00;98664.09;6105784;19;20312;-74
2023/09/29 01:32:13;;;;;;;9.40;7.07;;;;;;;11.90;100.00;98662.84;6108444;19;20018;-74
2023/09/29 01:34:14;;;;;;;10.32;7.20;;;;;;;11.86;100.00;98661.22;6108399;19;20043;-74
2023/09/29 01:36:14;;;;;;;10.45;6.82;;;;;;;11.81;100.00;98660.38;6107879;19;20016;-74
2023/09/29 01:38:15;;;;;;;9.50;6.85;;;;;;;11.76;100.00;98660.72;6108370;19;20007;-74
2023/09/29 01:40:16;;;;;;;8.85;6.95;;;;;;;11.71;100.00;98663.03;6105316;19;20037;-74
2023/09/29 01:42:16;;;;;;;9.57;7.20;;;;;;;11.67;100.00;98664.97;6107522;19;20010;-74
2023/09/29 01:44:17;;;;;;;11.90;6.43;;;;;;;11.67;100.00;98663.00;6107242;19;20050;-74
2023/09/29 01:46:17;;;;;;;8.43;6.88;;;;;;;11.63;100.00;98664.13;6107405;19;20011;-74
2023/09/29 01:48:18;;;;;;;9.07;6.63;;;;;;;11.59;100.00;98675.19;6107441;19;20066;-74
2023/09/29 01:50:20;;;;;;;10.23;7.07;;;;;;;11.54;100.00;98673.53;6106485;19;20026;-74
2023/09/29 01:52:22;;;;;;;;;;;;;;;11.58;100.00;98673.56;6107803;19;23290;-74
2023/09/29 01:54:23;;;;;;;9.30;6.05;;;;;;;11.58;100.00;98670.00;6108006;19;19915;-74
2023/09/29 01:56:23;;;;;;;10.65;7.07;;;;;;;11.50;100.00;98663.59;6106897;19;20490;-74
2023/09/29 01:58:24;;;;;;;14.35;7.10;;;;;;;11.45;100.00;98669.50;6107658;19;20003;-74
2023/09/29 02:00:25;;;;;;;10.05;6.70;;;;;;;11.39;100.00;98668.22;6105377;19;20912;-74
2023/09/29 02:02:25;;;;;;;7.88;6.30;;;;;;;11.38;100.00;98667.44;6106972;19;20027;-74
2023/09/29 02:04:26;;;;;;;9.02;5.70;;;;;;;11.39;100.00;98669.03;6106875;19;20010;-74
2023/09/29 02:06:27;;;;;;;13.40;7.03;;;;;;;11.37;100.00;98665.84;6107808;19;20022;-74
2023/09/29 02:08:27;;;;;;;9.10;6.47;;;;;;;11.36;100.00;98661.47;6106978;19;20470;-74
2023/09/29 02:10:27;;;;;;;9.18;6.97;;;;;;;11.34;100.00;98658.28;6105026;19;20023;-74
2023/09/29 02:12:29;;;;;;;19.58;7.05;;;;;;;11.32;100.00;98655.09;6103505;19;20006;-74
2023/09/29 02:14:30;;;;;;;10.45;6.97;;;;;;;11.31;100.00;98661.81;6107754;19;20013;-74
2023/09/29 02:16:30;;;;;;;7.78;6.57;;;;;;;11.29;100.00;98661.38;6110090;19;20404;-74
2023/09/29 02:18:31;;;;;;;8.23;6.40;;;;;;;11.28;100.00;98659.81;6112833;19;20465;-74
2023/09/29 02:20:31;;;;;;;10.00;7.00;;;;;;;11.25;100.00;98664.13;6111485;19;20019;-74
2023/09/29 02:22:32;;;;;;;8.43;6.57;;;;;;;11.20;100.00;98661.69;6114496;19;20017;-74
2023/09/29 02:24:33;;;;;;;8.32;6.32;;;;;;;11.18;100.00;98661.28;6113372;19;20465;-74
2023/09/29 02:26:34;;;;;;;8.75;6.20;;;;;;;11.16;100.00;98655.28;6112038;19;20007;-74
2023/09/29 02:28:34;;;;;;;8.10;6.13;;;;;;;11.16;100.00;98654.50;6112900;19;20010;-74
2023/09/29 02:30:35;;;;;;;8.52;7.10;;;;;;;11.17;100.00;98654.16;6111886;19;20013;-74
2023/09/29 02:32:40;;;;;;;8.48;6.68;;;;;;;11.18;100.00;98652.16;6112919;19;20007;-74
2023/09/29 02:34:40;;;;;;;12.20;7.68;;;;;;;11.18;100.00;98650.19;6114120;19;20017;-74
2023/09/29 02:36:40;;;;;;;18.23;7.60;;;;;;;11.16;100.00;98652.53;6113546;19;20006;-74
2023/09/29 02:38:41;;;;;;;10.32;6.65;;;;;;;11.15;100.00;98650.13;6112572;19;20034;-74
2023/09/29 02:40:41;;;;;;;10.50;6.80;;;;;;;11.16;100.00;98651.72;6111090;19;20006;-74
2023/09/29 02:42:44;;;;;;;15.93;7.38;;;;;;;11.19;100.00;98653.75;6112331;19;20526;-74
2023/09/29 02:44:44;;;;;;;12.68;6.88;;;;;;;11.18;100.00;98652.16;6113386;19;20482;-74
2023/09/29 02:46:45;;;;;;;12.05;7.35;;;;;;;11.17;100.00;98668.00;6113633;19;20011;-73
2023/09/29 02:48:45;;;;;;;10.88;6.95;;;;;;;11.10;100.00;98664.34;6111566;19;20006;-74
2023/09/29 02:50:45;;;;;;;14.18;8.18;;;;;;;11.09;100.00;98665.47;6100099;19;20002;-74
2023/09/29 02:52:46;;;;;;;11.93;7.70;;;;;;;11.08;100.00;98667.47;6111856;19;20368;-74
2023/09/29 02:54:46;;;;;;;9.80;7.38;;;;;;;11.05;100.00;98668.22;6112999;19;20421;-74
2023/09/29 02:56:46;;;;;;;10.98;7.55;;;;;;;11.06;100.00;98667.03;6112580;19;20009;-74
2023/09/29 02:58:47;;;;;;;11.13;7.60;;;;;;;11.01;100.00;98664.63;6111467;19;20023;-74
2023/09/29 03:00:47;;;;;;;13.32;7.18;;;;;;;11.00;100.00;98671.31;6111408;19;20006;-74
2023/09/29 03:02:48;;;;;;;9.18;6.70;;;;;;;10.95;100.00;98669.69;6112318;19;20011;-74
2023/09/29 03:04:50;;;;;;;6.95;5.90;;;;;;;10.89;100.00;98665.66;6112364;19;20090;-74
2023/09/29 03:06:51;;;;;;;8.98;6.90;;;;;;;10.86;100.00;98665.59;6111611;19;20030;-74
2023/09/29 03:08:54;;;;;;;9.80;6.07;;;;;;;10.84;100.00;98665.16;6111446;19;20010;-74
2023/09/29 03:10:54;;;;;;;10.40;6.65;;;;;;;10.84;100.00;98662.41;6108515;19;20502;-74
2023/09/29 03:12:58;;;;;;;9.13;6.40;;;;;;;10.85;100.00;98667.59;6111535;19;20017;-74
2023/09/29 03:14:58;;;;;;;9.07;6.85;;;;;;;10.89;100.00;98664.84;6111945;19;20002;-74
2023/09/29 03:16:59;;;;;;;10.32;7.10;;;;;;;10.86;100.00;98654.53;6111041;19;20013;-74
2023/09/29 03:19:00;;;;;;;7.82;5.82;;;;;;;10.87;100.00;98653.34;6112078;19;20418;-74
2023/09/29 03:21:01;;;;;;;7.85;5.93;;;;;;;10.88;100.00;98652.19;6110707;19;20006;-74
2023/09/29 03:23:04;;;;;;;8.05;6.10;;;;;;;10.83;100.00;98653.28;6110977;19;20006;-74
2023/09/29 03:25:05;;;;;;;7.80;6.43;;;;;;;10.83;100.00;98652.50;6110530;19;20002;-74
2023/09/29 03:27:05;;;;;;;7.97;6.80;;;;;;;10.80;100.00;98658.81;6110604;19;20066;-74
2023/09/29 03:29:05;;;;;;;9.10;6.72;;;;;;;10.76;100.00;98656.00;6110366;19;20337;-74
2023/09/29 03:31:07;;;;;;;8.00;6.45;;;;;;;10.77;100.00;98657.59;6109767;19;20029;-74
2023/09/29 03:33:07;;;;;;;7.43;6.18;;;;;;;10.80;100.00;98658.81;6110743;19;20003;-74
2023/09/29 03:35:09;;;;;;;11.75;6.60;;;;;;;10.75;100.00;98650.81;6111974;19;20070;-74
2023/09/29 03:37:10;;;;;;;9.85;6.80;;;;;;;10.69;100.00;98651.16;6110451;19;20007;-74
2023/09/29 03:39:11;;;;;;;8.15;6.25;;;;;;;10.62;100.00;98653.81;6110741;19;20010;-74
2023/09/29 03:41:11;;;;;;;12.18;5.78;;;;;;;10.61;100.00;98659.72;6108905;19;20017;-74
2023/09/29 03:43:11;;;;;;;9.73;7.00;;;;;;;10.58;100.00;98661.25;6110705;19;20006;-74
2023/09/29 03:45:12;;;;;;;9.75;6.95;;;;;;;10.57;100.00;98665.19;6111030;19;20088;-75
2023/09/29 03:47:13;;;;;;;8.27;6.32;;;;;;;10.55;100.00;98666.75;6110726;19;20512;-74
2023/09/29 03:49:14;;;;;;;8.20;6.30;;;;;;;10.60;100.00;98670.00;6108162;19;20065;-74
2023/09/29 03:51:24;;;;;;;8.70;6.50;;;;;;;10.61;100.00;98671.59;6102344;19;20430;-74
2023/09/29 03:53:28;;;;;;;10.25;6.97;;;;;;;10.61;100.00;98677.13;6103397;19;20034;-74
2023/09/29 03:55:28;;;;;;;9.52;6.90;;;;;;;10.60;100.00;98680.28;6100637;19;20312;-74
2023/09/29 03:57:28;;;;;;;9.70;6.55;;;;;;;10.57;100.00;98692.06;6102615;19;20014;-74
2023/09/29 03:59:29;;;;;;;10.32;7.00;;;;;;;10.55;100.00;98688.88;6103514;19;20006;-74
2023/09/29 04:01:30;;;;;;;8.07;6.60;;;;;;;10.49;100.00;98685.63;6101255;19;20577;-74
2023/09/29 04:03:30;;;;;;;8.43;7.07;;;;;;;10.48;100.00;98684.03;6102848;19;20329;-74
2023/09/29 04:05:30;;;;;;;9.07;6.18;;;;;;;10.49;100.00;98685.63;6102237;19;20024;-74
2023/09/29 04:07:30;;;;;;;8.68;6.28;;;;;;;10.51;100.00;98683.31;6102980;19;20003;-74
2023/09/29 04:09:31;;;;;;;8.88;6.50;;;;;;;10.50;100.00;98678.13;6102354;19;20025;-74
2023/09/29 04:11:31;;;;;;;9.48;7.38;;;;;;;10.47;100.00;98674.16;6099649;19;20007;-74
2023/09/29 04:13:32;;;;;;;8.85;6.20;;;;;;;10.44;100.00;98674.09;6102400;19;20026;-74
2023/09/29 04:15:32;;;;;;;7.30;6.38;;;;;;;10.42;100.00;98677.22;6103012;19;20020;-74
2023/09/29 04:17:32;;;;;;;6.97;6.07;;;;;;;10.39;100.00;98681.53;6102335;19;20597;-74
2023/09/29 04:19:35;;;;;;;10.07;6.40;;;;;;;10.41;100.00;98678.41;6102662;19;20007;-74
2023/09/29 04:21:35;;;;;;;10.95;6.70;;;;;;;10.43;100.00;98670.53;6101394;19;20002;-74
2023/09/29 04:23:35;;;;;;;9.63;6.57;;;;;;;10.47;100.00;98674.16;6102472;19;20075;-74
2023/09/29 04:25:36;;;;;;;10.30;6.15;;;;;;;10.44;100.00;98672.13;6101561;19;20019;-74
2023/09/29 04:27:37;;;;;;;8.52;6.60;;;;;;;10.40;100.00;98669.31;6102753;19;20014;-74
2023/09/29 04:29:37;;;;;;;10.45;7.68;;;;;;;10.35;100.00;98677.94;6102013;19;20324;-74
2023/09/29 04:31:37;;;;;;;14.27;7.97;;;;;;;10.30;100.00;98672.72;6101500;19;20010;-74
2023/09/29 04:33:38;;;;;;;9.20;6.60;;;;;;;10.35;100.00;98668.84;6102704;19;20032;-74
2023/09/29 04:35:38;;;;;;;14.60;6.72;;;;;;;10.34;100.00;98673.56;6102362;19;20011;-74
2023/09/29 04:37:40;;;;;;;8.02;6.47;;;;;;;10.38;100.00;98670.84;6101927;19;20017;-74
2023/09/29 04:39:40;;;;;;;10.00;6.32;;;;;;;10.38;100.00;98668.88;6098747;19;20566;-74
2023/09/29 04:41:40;;;;;;;7.97;6.65;;;;;;;10.40;100.00;98674.84;6101601;19;20011;-74
2023/09/29 04:43:40;;;;;;;8.10;6.18;;;;;;;10.35;100.00;98677.94;6101203;19;20450;-74
2023/09/29 04:45:41;;;;;;;7.85;6.45;;;;;;;10.34;100.00;98676.34;6101199;19;20031;-74
2023/09/29 04:47:42;;;;;;;11.13;7.40;;;;;;;10.28;100.00;98679.78;6101735;19;20082;-74
2023/09/29 04:49:42;;;;;;;9.77;8.38;;;;;;;10.30;100.00;98686.53;6101471;19;20386;-73
2023/09/29 04:51:43;;;;;;;16.48;9.48;;;;;;;10.27;100.00;98690.06;6108808;19;20034;-74
2023/09/29 04:53:43;;;;;;;11.38;8.60;;;;;;;10.25;100.00;98686.03;6108821;19;20018;-74
2023/09/29 04:55:44;;;;;;;11.63;7.78;;;;;;;10.27;100.00;98683.72;6108991;19;20017;-74
2023/09/29 04:57:44;;;;;;;12.57;8.85;;;;;;;10.26;100.00;98679.34;6108477;19;20056;-74
2023/09/29 04:59:45;;;;;;;10.10;7.88;;;;;;;10.29;100.00;98673.88;6107723;19;20007;-74
2023/09/29 05:01:45;;;;;;;11.70;8.88;;;;;;;10.24;100.00;98670.63;6108363;19;20027;-74
2023/09/29 05:03:52;;;;;;;14.23;8.65;;;;;;;10.20;100.00;98680.81;6108056;19;20011;-74
2023/09/29 05:05:53;;;;;;;11.45;8.90;;;;;;;10.18;100.00;98680.34;6109043;19;20572;-74
2023/09/29 05:07:53;;;;;;;15.88;8.75;;;;;;;10.19;100.00;98680.00;6108467;19;20078;-74
2023/09/29 05:09:53;;;;;;;12.35;8.73;;;;;;;10.18;100.00;98683.94;6107100;19;20019;-74
2023/09/29 05:11:54;;;;;;;14.57;8.40;;;;;;;10.21;100.00;98679.63;6106197;19;20073;-74
2023/09/29 05:13:55;;;;;;;17.52;8.00;;;;;;;10.20;100.00;98683.56;6108533;19;20017;-74
2023/09/29 05:15:55;;;;;;;10.57;7.88;;;;;;;10.24;100.00;98688.00;6108415;19;20014;-74
2023/09/29 05:17:56;;;;;;;11.90;7.70;;;;;;;10.24;100.00;98693.53;6108545;19;20006;-74
2023/09/29 05:19:56;;;;;;;10.93;8.02;;;;;;;10.27;100.00;98680.97;6107271;19;20011;-75
2023/09/29 05:21:56;;;;;;;10.55;7.70;;;;;;;10.29;100.00;98679.41;6108743;19;20014;-74
2023/09/29 05:23:57;;;;;;;10.50;8.10;;;;;;;10.30;100.00;98681.00;6107416;19;20011;-73
2023/09/29 05:26:02;;;;;;;11.77;8.20;;;;;;;10.33;100.00;98683.00;6108883;19;20020;-74
2023/09/29 05:28:03;;;;;;;12.75;7.80;;;;;;;10.33;100.00;98688.53;6106805;19;20003;-73
2023/09/29 05:30:03;;;;;;;12.40;7.57;;;;;;;10.33;100.00;98685.78;6106174;19;19999;-74
2023/09/29 05:32:04;;;;;;;10.95;8.30;;;;;;;10.36;100.00;98684.25;6107124;19;20478;-74
2023/09/29 05:34:04;;;;;;;13.13;7.72;;;;;;;10.35;100.00;98688.19;6108087;19;20002;-73
2023/09/29 05:36:04;;;;;;;11.52;8.00;;;;;;;10.36;100.00;98684.25;6107203;19;20828;-73
2023/09/29 05:38:05;;;;;;;13.38;7.35;;;;;;;10.39;100.00;98694.56;6107631;19;20006;-74
2023/09/29 05:40:06;;;;;;;13.60;8.20;;;;;;;10.43;100.00;98697.41;6105631;19;20076;-73
2023/09/29 05:42:07;;;;;;;10.75;7.30;;;;;;;10.43;100.00;98689.91;6108271;19;20011;-74
2023/09/29 05:44:08;;;;;;;13.43;8.00;;;;;;;10.45;100.00;98692.28;6106183;19;20006;-73
2023/09/29 05:46:08;;;;;;;9.95;7.00;;;;;;;10.47;100.00;98696.28;6108047;19;20025;-74
2023/09/29 05:48:09;;;;;;;10.82;8.93;;;;;;;10.48;100.00;98688.78;6106622;19;20037;-74
2023/09/29 05:50:09;;;;;;;15.35;9.35;;;;;;;10.54;100.00;98693.63;6105169;19;19995;-73
2023/09/29 05:52:10;;;;;;;18.58;10.35;;;;;;;10.57;100.00;98689.31;6106459;19;20038;-74
2023/09/29 05:54:11;;;;;;;24.60;13.05;;;;;;;10.67;100.00;98691.41;6107464;19;20023;-74
2023/09/29 05:56:13;;;;;;;16.95;9.93;;;;;;;10.72;100.00;98687.53;6106882;19;20011;-74
2023/09/29 05:58:13;;;;;;;17.47;9.90;;;;;;;10.79;100.00;98680.16;6108200;19;20027;-74
2023/09/29 06:00:13;;;;;;;15.45;9.10;;;;;;;10.90;100.00;98694.13;6104785;19;20661;-74
2023/09/29 06:02:14;;;;;;;14.43;8.82;;;;;;;11.00;100.00;98693.47;6106940;19;20010;-73
2023/09/29 06:04:14;;;;;;;10.98;7.80;;;;;;;11.07;100.00;98698.28;6106267;19;20010;-73
2023/09/29 06:06:16;;;;;;;12.90;8.07;;;;;;;11.15;100.00;98695.25;6106918;19;20370;-73
2023/09/29 06:08:16;;;;;;;11.68;8.07;;;;;;;11.25;100.00;98699.31;6106180;19;20007;-73
2023/09/29 06:10:17;;;;;;;10.73;7.70;;;;;;;11.35;100.00;98692.34;6105992;19;20455;-73
2023/09/29 06:12:17;;;;;;;14.15;8.18;;;;;;;11.45;100.00;98702.72;6103678;19;20526;-73
2023/09/29 06:14:17;;;;;;;10.95;8.45;;;;;;;11.60;100.00;98704.50;6106163;19;20006;-73
2023/09/29 06:16:18;;;;;;;10.70;8.95;;;;;;;11.68;100.00;98710.91;6106602;19;20006;-73
2023/09/29 06:18:19;;;;;;;11.45;7.95;;;;;;;11.77;100.00;98705.84;6106327;19;20337;-73
2023/09/29 06:20:19;;;;;;;10.20;7.90;;;;;;;11.86;100.00;98708.34;6105499;19;20011;-74
2023/09/29 06:22:19;;;;;;;11.32;7.88;;;;;;;11.91;100.00;98708.78;6107307;19;19995;-74
2023/09/29 06:24:20;;;;;;;11.88;8.73;;;;;;;12.00;100.00;98708.50;6105513;19;20466;-73
2023/09/29 06:26:20;;;;;;;11.85;8.60;;;;;;;12.05;100.00;98711.69;6107892;19;21012;-74
2023/09/29 06:28:21;;;;;;;14.02;8.18;;;;;;;12.11;100.00;98712.16;6107118;19;20038;-74
2023/09/29 06:30:21;;;;;;;12.43;8.00;;;;;;;12.16;100.00;98720.09;6105145;19;20026;-73
2023/09/29 06:32:21;;;;;;;16.48;9.40;;;;;;;12.26;100.00;98719.44;6106868;19;20011;-74
2023/09/29 06:34:22;;;;;;;13.70;9.45;;;;;;;12.31;100.00;98707.97;6106291;19;20470;-74
2023/09/29 06:36:23;;;;;;;12.25;9.05;;;;;;;12.40;100.00;98715.16;6106096;19;20022;-73
2023/09/29 06:38:23;;;;;;;12.55;8.50;;;;;;;12.45;100.00;98710.06;6107312;19;20014;-74
2023/09/29 06:40:23;;;;;;;16.58;9.48;;;;;;;12.52;100.00;98704.56;6105363;19;20459;-74
2023/09/29 06:42:24;;;;;;;11.88;8.93;;;;;;;12.60;100.00;98713.75;6106148;19;20090;-74
2023/09/29 06:44:24;;;;;;;10.30;8.18;;;;;;;12.66;100.00;98703.88;6106037;19;20443;-74
2023/09/29 06:46:24;;;;;;;9.60;8.00;;;;;;;12.68;100.00;98690.41;6106375;19;20257;-74
2023/09/29 06:48:25;;;;;;;10.10;8.00;;;;;;;12.74;100.00;98702.72;6106637;19;20021;-74
2023/09/29 06:50:26;;;;;;;14.18;10.25;;;;;;;12.83;100.00;98699.63;6104197;19;21157;-74
2023/09/29 06:52:26;;;;;;;15.70;10.00;;;;;;;12.88;100.00;98699.25;6106097;19;20014;-74
2023/09/29 06:54:27;;;;;;;18.77;9.63;;;;;;;12.93;100.00;98699.66;6106654;19;20494;-74
2023/09/29 06:56:27;;;;;;;17.13;10.25;;;;;;;13.00;100.00;98698.91;6105560;19;20459;-74
2023/09/29 06:58:27;;;;;;;13.98;10.00;;;;;;;13.06;100.00;98693.78;6106566;19;20006;-74
2023/09/29 07:00:28;;;;;;;12.98;9.40;;;;;;;13.10;100.00;98706.50;6104729;19;20078;-74
2023/09/29 07:02:28;;;;;;;12.35;10.38;;;;;;;13.15;100.00;98697.78;6107005;19;20011;-74
2023/09/29 07:04:28;;;;;;;19.77;10.98;;;;;;;13.23;100.00;98703.41;6109908;19;20523;-74
2023/09/29 07:06:29;;;;;;;14.55;10.82;;;;;;;13.34;100.00;98709.81;6111077;19;20006;-74
2023/09/29 07:08:29;;;;;;;12.93;9.50;;;;;;;13.39;100.00;98715.78;6111396;19;20489;-74
2023/09/29 07:10:30;;;;;;;13.55;9.38;;;;;;;13.43;100.00;98707.47;6109691;19;20020;-74
2023/09/29 07:12:31;;;;;;;13.88;9.32;;;;;;;13.48;100.00;98710.66;6109772;19;20027;-74
2023/09/29 07:14:31;;;;;;;13.20;8.90;;;;;;;13.51;100.00;98711.06;6111087;19;20102;-74
2023/09/29 07:16:32;;;;;;;17.95;11.13;;;;;;;13.57;100.00;98704.75;6111282;19;20006;-74
2023/09/29 07:18:32;;;;;;;12.48;9.98;;;;;;;13.65;100.00;98714.72;6111266;19;20006;-74
2023/09/29 07:20:33;;;;;;;11.02;8.95;;;;;;;13.69;100.00;98709.13;6107443;19;20006;-74
2023/09/29 07:22:33;;;;;;;11.23;9.15;;;;;;;13.70;100.00;98711.53;6110403;19;20546;-74
2023/09/29 07:24:33;;;;;;;14.88;9.07;;;;;;;13.73;100.00;98705.16;6111408;19;20378;-74
2023/09/29 07:26:34;;;;;;;10.77;8.35;;;;;;;13.79;100.00;98705.59;6109765;19;20371;-74
2023/09/29 07:28:35;;;;;;;11.10;8.75;;;;;;;13.84;100.00;98709.97;6111922;19;20010;-74
2023/09/29 07:30:35;;;;;;;9.93;8.60;;;;;;;13.91;100.00;98704.44;6106787;19;20014;-74
2023/09/29 07:32:40;;;;;;;12.43;8.38;;;;;;;13.93;100.00;98702.03;6111105;19;20042;-74
2023/09/29 07:34:40;;;;;;;11.80;7.97;;;;;;;13.97;100.00;98691.72;6110428;19;20355;-74
2023/09/29 07:36:41;;;;;;;13.85;8.43;;;;;;;14.05;100.00;98684.97;6111521;19;20011;-74
2023/09/29 07:38:41;;;;;;;14.43;8.50;;;;;;;14.09;100.00;98682.19;6110383;19;20030;-74
2023/09/29 07:40:41;;;;;;;12.45;9.15;;;;;;;14.11;100.00;98680.59;6108293;19;20014;-74
2023/09/29 07:42:42;;;;;;;13.43;9.63;;;;;;;14.10;100.00;98667.88;6109026;19;20363;-76
2023/09/29 07:44:43;;;;;;;18.98;10.80;;;;;;;14.22;100.00;98683.38;6111033;19;20011;-75
2023/09/29 07:46:45;;;;;;;13.75;10.77;;;;;;;14.20;100.00;98667.09;6111280;19;20082;-72
2023/09/29 07:48:45;;;;;;;12.65;9.73;;;;;;;14.22;100.00;98659.13;6109477;19;20098;-74
2023/09/29 07:50:46;;;;;;;27.23;9.52;;;;;;;14.27;100.00;98655.16;6100620;19;20011;-73
2023/09/29 07:52:46;;;;;;;19.20;10.48;;;;;;;14.26;100.00;98656.34;6110969;19;20021;-73
2023/09/29 07:54:46;;;;;;;19.02;9.07;;;;;;;14.26;100.00;98661.94;6110830;19;20034;-73
2023/09/29 07:56:49;;;;;;;22.27;9.63;;;;;;;14.26;100.00;98661.94;6110509;19;20495;-73
2023/09/29 07:58:51;;;;;;;23.60;9.45;;;;;;;14.28;100.00;98665.88;6110086;19;20015;-74
2023/09/29 08:00:51;;;;;;;20.55;9.77;;;;;;;14.30;100.00;98671.84;6109536;19;20117;-73
2023/09/29 08:02:52;;;;;;;29.05;10.18;;;;;;;14.34;100.00;98667.09;6110375;19;20030;-73
2023/09/29 08:04:53;;;;;;;17.08;8.00;;;;;;;14.37;100.00;98671.06;6110713;19;20457;-73
2023/09/29 08:06:53;;;;;;;14.13;8.93;;;;;;;14.39;100.00;98682.56;6107505;19;20571;-74
2023/09/29 08:08:53;;;;;;;18.73;8.02;;;;;;;14.42;100.00;98686.56;6109958;19;20014;-73
2023/09/29 08:10:54;;;;;;;18.63;8.05;;;;;;;14.44;100.00;98695.31;6105101;19;20003;-73
2023/09/29 08:12:55;;;;;;;17.80;8.98;;;;;;;14.45;100.00;98686.59;6108694;19;20010;-73
2023/09/29 08:14:55;;;;;;;15.02;8.05;;;;;;;14.44;100.00;98687.75;6108154;19;20082;-73
2023/09/29 08:16:55;;;;;;;14.52;7.32;;;;;;;14.48;100.00;98684.97;6107297;19;20401;-73
2023/09/29 08:18:56;;;;;;;10.90;6.78;;;;;;;14.51;100.00;98685.00;6108374;19;20069;-73
2023/09/29 08:20:56;;;;;;;14.07;8.00;;;;;;;14.53;100.00;98684.59;6106475;19;20040;-73
2023/09/29 08:22:56;;;;;;;10.82;8.07;;;;;;;14.56;100.00;98673.47;6108388;19;20035;-73
2023/09/29 08:24:57;;;;;;;9.18;6.72;;;;;;;14.61;100.00;98675.03;6108416;19;20020;-73
2023/09/29 08:26:57;;;;;;;9.45;6.40;;;;;;;14.67;100.00;98672.66;6107660;19;20007;-74
2023/09/29 08:28:59;;;;;;;15.77;7.82;;;;;;;14.69;100.00;98659.91;6108673;19;20011;-73
2023/09/29 08:31:00;;;;;;;16.00;8.05;;;;;;;14.72;100.00;98659.09;6105233;19;20011;-73
2023/09/29 08:33:00;;;;;;;10.35;6.75;;;;;;;14.75;100.00;98658.31;6107849;19;19998;-74
2023/09/29 08:35:00;;;;;;;11.25;7.30;;;;;;;14.82;100.00;98660.28;6107647;19;20629;-73
2023/09/29 08:37:01;;;;;;;13.32;7.45;;;;;;;14.86;100.00;98663.84;6108691;19;20006;-73
2023/09/29 08:39:01;;;;;;;15.05;6.95;;;;;;;14.91;100.00;98660.66;6108566;19;20010;-73
2023/09/29 08:41:05;;;;;;;15.48;8.05;;;;;;;14.97;100.00;98663.81;6105888;19;20007;-73
2023/09/29 08:43:06;;;;;;;12.25;7.88;;;;;;;15.08;100.00;98672.94;6108485;19;20081;-73
2023/09/29 08:45:13;;;;;;;16.27;10.07;;;;;;;15.18;100.00;98678.47;6108954;19;20009;-74
2023/09/29 08:47:19;;;;;;;14.63;10.15;;;;;;;15.36;100.00;98685.97;6108785;19;20462;-73
2023/09/29 08:49:20;;;;;;;13.88;9.80;;;;;;;15.52;100.00;98688.28;6106456;19;20048;-73
2023/09/29 08:51:21;;;;;;;16.30;8.35;;;;;;;15.59;100.00;98686.25;6100525;19;20007;-73
2023/09/29 08:53:24;;;;;;;13.40;8.18;;;;;;;15.64;100.00;98673.91;6101706;19;20014;-74
2023/09/29 08:55:25;;;;;;;12.73;8.13;;;;;;;15.72;100.00;98669.84;6101336;19;20037;-74
2023/09/29 08:57:26;;;;;;;15.65;9.50;;;;;;;15.86;100.00;98685.72;6100689;19;20006;-73
2023/09/29 08:59:28;;;;;;;16.33;8.82;;;;;;;15.93;100.00;98674.53;6101320;19;20463;-74
2023/09/29 09:01:30;;;;;;;15.32;8.48;;;;;;;15.98;100.00;98669.31;6097737;19;20003;-74
2023/09/29 09:03:30;;;;;;;13.45;7.93;;;;;;;16.05;100.00;98665.66;6100602;19;20002;-74
2023/09/29 09:05:31;;;;;;;15.38;8.40;;;;;;;16.10;100.00;98665.22;6101917;19;20501;-74
2023/09/29 09:07:35;;;;;;;11.25;7.60;;;;;;;16.15;100.00;98664.78;6100937;19;20017;-73
2023/09/29 09:09:36;;;;;;;9.15;6.72;;;;;;;16.17;100.00;98662.38;6100927;19;20002;-74
2023/09/29 09:11:43;;;;;;;10.88;8.13;;;;;;;16.22;100.00;98659.16;6098326;19;20370;-73
2023/09/29 09:13:58;;;;;;;14.23;8.07;;;;;;;16.26;100.00;98661.91;6101506;19;20007;-73
2023/09/29 09:16:00;;;;;;;16.90;8.98;;;;;;;16.28;100.00;98654.69;6100712;19;20006;-74
2023/09/29 09:18:00;;;;;;;14.35;8.80;;;;;;;16.35;100.00;98655.84;6100982;19;20101;-74